Time;durP1;ratioP1;P1;durP2;ratioP2;P2;SDS_P1;SDS_P2;PMS_P1;PMS_P2;Temp;Humidity;BMP_temperature;BMP_pressure;BME280_temperature;BME280_humidity;BME280_pressure;Samples;Min_cycle;Max_cycle;Signal;HPM_P1;HPM_P2
2023/07/07 00:01:09;;;;;;;4.95;2.40;;;;;;;;;;5092494;28;20209;-51
2023/07/07 00:03:46;;;;;;;5.00;2.75;;;;;;;;;;5092745;28;20187;-49
2023/07/07 00:06:13;;;;;;;10.18;2.58;;;;;;;;;;5092272;28;20203;-50
2023/07/07 00:08:40;;;;;;;5.25;3.08;;;;;;;;;;5091843;28;20810;-50
2023/07/07 00:11:08;;;;;;;6.40;2.50;;;;;;;;;;5092112;28;20603;-54
2023/07/07 00:13:35;;;;;;;4.47;2.92;;;;;;;;;;5091989;28;20203;-50
2023/07/07 00:16:03;;;;;;;6.05;3.25;;;;;;;;;;5092410;28;20358;-50
2023/07/07 00:18:30;;;;;;;5.22;2.63;;;;;;;;;;5093885;28;20198;-49
2023/07/07 00:20:59;;;;;;;5.45;2.95;;;;;;;;;;5093234;28;20202;-49
2023/07/07 00:23:29;;;;;;;5.47;2.90;;;;;;;;;;5093410;28;20232;-50
2023/07/07 00:26:03;;;;;;;5.20;2.85;;;;;;;;;;5093339;28;20242;-50
2023/07/07 00:28:31;;;;;;;5.97;2.95;;;;;;;;;;5094093;28;20198;-50
2023/07/07 00:30:59;;;;;;;4.30;2.92;;;;;;;;;;5092923;28;20205;-50
2023/07/07 00:33:27;;;;;;;6.28;3.13;;;;;;;;;;5075415;28;20289;-50
2023/07/07 00:35:54;;;;;;;3.78;2.60;;;;;;;;;;5093655;28;20227;-49
2023/07/07 00:38:22;;;;;;;6.55;2.58;;;;;;;;;;5093557;28;20206;-50
2023/07/07 00:40:53;;;;;;;4.82;2.30;;;;;;;;;;5093359;28;20199;-50
2023/07/07 00:43:20;;;;;;;3.75;2.35;;;;;;;;;;5091565;28;20607;-49
2023/07/07 00:45:48;;;;;;;4.38;3.05;;;;;;;;;;5093673;28;20206;-51
2023/07/07 00:48:19;;;;;;;5.88;3.20;;;;;;;;;;5093443;28;20728;-49
2023/07/07 00:50:52;;;;;;;6.50;2.55;;;;;;;;;;5092494;28;20199;-49
2023/07/07 00:53:19;;;;;;;4.80;2.80;;;;;;;;;;5075286;28;20733;-48
2023/07/07 00:55:49;;;;;;;5.20;2.88;;;;;;;;;;5075290;28;20588;-49
2023/07/07 00:58:19;;;;;;;3.83;2.90;;;;;;;;;;5092111;28;20729;-48
2023/07/07 01:01:01;;;;;;;7.05;2.95;;;;;;;;;;5074914;28;20207;-49
2023/07/07 01:03:39;;;;;;;4.75;2.85;;;;;;;;;;5092334;28;20210;-51
2023/07/07 01:06:08;;;;;;;4.93;3.35;;;;;;;;;;5093801;28;20206;-49
2023/07/07 01:08:36;;;;;;;5.70;3.30;;;;;;;;;;5075313;28;20195;-48
2023/07/07 01:11:04;;;;;;;8.13;3.25;;;;;;;;;;5075768;28;20547;-48
2023/07/07 01:13:31;;;;;;;4.00;2.58;;;;;;;;;;5093250;28;20222;-51
2023/07/07 01:16:20;;;;;;;4.70;3.13;;;;;;;;;;5093188;28;20210;-50
2023/07/07 01:18:56;;;;;;;7.78;2.95;;;;;;;;;;5075843;28;20199;-50
2023/07/07 01:21:29;;;;;;;8.32;3.00;;;;;;;;;;5092743;28;20193;-50
2023/07/07 01:24:38;;;;;;;5.03;3.35;;;;;;;;;;5093321;28;20230;-50
2023/07/07 01:27:32;;;;;;;5.25;3.30;;;;;;;;;;5091914;28;20202;-50
2023/07/07 01:30:02;;;;;;;4.32;3.20;;;;;;;;;;5092826;28;20597;-50
2023/07/07 01:32:30;;;;;;;6.18;3.25;;;;;;;;;;5093191;28;20248;-50
2023/07/07 01:35:00;;;;;;;11.55;3.28;;;;;;;;;;5091604;28;20303;-50
2023/07/07 01:37:27;;;;;;;5.45;3.10;;;;;;;;;;5090683;28;20202;-49
2023/07/07 01:39:54;;;;;;;5.32;3.13;;;;;;;;;;5092083;28;20209;-50
2023/07/07 01:42:29;;;;;;;6.32;2.97;;;;;;;;;;5091992;28;20214;-50
2023/07/07 01:45:02;;;;;;;5.60;2.75;;;;;;;;;;5091378;28;20662;-50
2023/07/07 01:47:37;;;;;;;4.50;2.75;;;;;;;;;;5092699;28;20559;-50
2023/07/07 01:50:30;;;;;;;5.07;2.63;;;;;;;;;;5092230;28;20198;-53
2023/07/07 01:53:08;;;;;;;10.75;2.75;;;;;;;;;;5091883;28;20221;-50
2023/07/07 01:55:40;;;;;;;8.32;3.25;;;;;;;;;;5095169;28;20219;-53
2023/07/07 01:58:09;;;;;;;6.88;3.22;;;;;;;;;;5078379;28;20244;-51
2023/07/07 02:00:37;;;;;;;4.97;3.00;;;;;;;;;;5078422;28;20285;-51
2023/07/07 02:03:09;;;;;;;5.55;2.88;;;;;;;;;;5096359;28;20217;-50
2023/07/07 02:05:37;;;;;;;4.43;2.83;;;;;;;;;;5095025;28;20198;-50
2023/07/07 02:08:04;;;;;;;3.90;2.67;;;;;;;;;;5094494;28;20209;-50
2023/07/07 02:10:31;;;;;;;6.13;3.05;;;;;;;;;;5095779;28;20202;-51
2023/07/07 02:12:59;;;;;;;5.00;3.35;;;;;;;;;;5095484;28;20259;-50
2023/07/07 02:15:26;;;;;;;4.85;3.13;;;;;;;;;;5096029;28;20254;-50
2023/07/07 02:17:53;;;;;;;4.50;2.70;;;;;;;;;;5095125;28;20252;-50
2023/07/07 02:20:20;;;;;;;5.15;2.83;;;;;;;;;;5094587;28;20230;-49
2023/07/07 02:22:48;;;;;;;5.35;2.58;;;;;;;;;;5096089;28;20606;-52
2023/07/07 02:25:15;;;;;;;5.50;2.63;;;;;;;;;;5094322;28;20245;-52
2023/07/07 02:27:43;;;;;;;7.10;3.38;;;;;;;;;;5095720;28;20203;-50
2023/07/07 02:30:10;;;;;;;11.18;3.15;;;;;;;;;;5095214;28;20211;-50
2023/07/07 02:32:38;;;;;;;4.55;3.03;;;;;;;;;;5095431;28;20667;-51
2023/07/07 02:35:06;;;;;;;7.60;3.00;;;;;;;;;;5095004;28;20234;-54
2023/07/07 02:37:34;;;;;;;4.03;3.08;;;;;;;;;;5095501;28;20198;-50
2023/07/07 02:40:01;;;;;;;4.35;2.72;;;;;;;;;;5095330;28;20285;-52
2023/07/07 02:42:29;;;;;;;3.42;2.72;;;;;;;;;;5095096;28;20194;-52
2023/07/07 02:44:56;;;;;;;6.80;2.95;;;;;;;;;;5094428;28;20207;-51
2023/07/07 02:47:23;;;;;;;3.75;2.90;;;;;;;;;;5095551;28;20210;-51
2023/07/07 02:49:52;;;;;;;5.25;3.33;;;;;;;;;;5094379;28;20667;-54
2023/07/07 02:52:19;;;;;;;8.82;4.18;;;;;;;;;;5093864;28;20202;-50
2023/07/07 02:54:46;;;;;;;6.85;4.05;;;;;;;;;;5094364;28;20199;-49
2023/07/07 02:57:14;;;;;;;12.57;3.90;;;;;;;;;;5093126;28;20260;-52
2023/07/07 02:59:41;;;;;;;8.23;3.88;;;;;;;;;;5094175;28;20199;-54
2023/07/07 03:02:08;;;;;;;8.15;4.05;;;;;;;;;;5093267;28;20206;-51
2023/07/07 03:04:35;;;;;;;9.32;4.65;;;;;;;;;;5093979;28;20655;-51
2023/07/07 03:07:03;;;;;;;6.55;4.18;;;;;;;;;;5092541;28;20198;-55
2023/07/07 03:09:30;;;;;;;5.13;3.50;;;;;;;;;;5095109;28;20198;-55
2023/07/07 03:12:00;;;;;;;6.57;3.65;;;;;;;;;;5093141;28;20195;-51
2023/07/07 03:14:27;;;;;;;12.00;3.63;;;;;;;;;;5092797;28;20203;-51
2023/07/07 03:16:56;;;;;;;5.80;4.07;;;;;;;;;;5093514;28;20219;-51
2023/07/07 03:19:32;;;;;;;10.32;3.90;;;;;;;;;;5093968;28;20195;-51
2023/07/07 03:22:13;;;;;;;9.05;4.15;;;;;;;;;;5093299;28;20202;-51
2023/07/07 03:25:01;;;;;;;5.88;3.92;;;;;;;;;;5093950;28;20257;-56
2023/07/07 03:27:40;;;;;;;5.00;3.60;;;;;;;;;;5092774;28;20640;-52
2023/07/07 03:30:14;;;;;;;4.90;3.40;;;;;;;;;;5091585;28;20202;-52
2023/07/07 03:33:09;;;;;;;5.30;3.58;;;;;;;;;;5084866;28;20244;-53
2023/07/07 03:35:36;;;;;;;10.13;4.28;;;;;;;;;;5087815;28;20313;-50
2023/07/07 03:38:03;;;;;;;12.15;3.90;;;;;;;;;;5089179;28;20205;-53
2023/07/07 03:40:31;;;;;;;7.03;3.90;;;;;;;;;;5094512;28;20195;-52
2023/07/07 03:43:00;;;;;;;6.30;4.07;;;;;;;;;;5090018;28;20199;-51
2023/07/07 03:45:31;;;;;;;6.88;4.03;;;;;;;;;;5091702;28;20329;-51
2023/07/07 03:48:00;;;;;;;5.63;3.72;;;;;;;;;;5090573;28;20210;-55
2023/07/07 03:50:28;;;;;;;3.97;3.00;;;;;;;;;;5081579;28;20203;-56
2023/07/07 03:52:55;;;;;;;7.03;2.80;;;;;;;;;;5093199;28;20289;-54
2023/07/07 03:55:23;;;;;;;4.20;3.13;;;;;;;;;;5093130;28;20241;-52
2023/07/07 03:57:50;;;;;;;5.15;3.05;;;;;;;;;;5092658;28;20275;-55
2023/07/07 04:00:18;;;;;;;5.88;3.13;;;;;;;;;;5091378;28;20199;-54
2023/07/07 04:02:45;;;;;;;4.22;2.88;;;;;;;;;;5084669;28;20256;-50
2023/07/07 04:05:12;;;;;;;5.75;3.10;;;;;;;;;;5092366;28;20210;-50
2023/07/07 04:07:40;;;;;;;3.33;2.67;;;;;;;;;;5082531;28;20227;-49
2023/07/07 04:10:08;;;;;;;5.53;3.03;;;;;;;;;;5091864;28;20656;-52
2023/07/07 04:12:35;;;;;;;4.65;2.70;;;;;;;;;;5083670;28;20271;-50
2023/07/07 04:15:03;;;;;;;4.45;2.92;;;;;;;;;;5089205;28;20226;-51
2023/07/07 04:17:30;;;;;;;5.50;2.83;;;;;;;;;;5082098;28;20717;-52
2023/07/07 04:19:57;;;;;;;4.13;2.40;;;;;;;;;;5079708;28;20714;-51
2023/07/07 04:22:24;;;;;;;6.88;2.75;;;;;;;;;;5091849;28;20219;-49
2023/07/07 04:25:12;;;;;;;3.58;2.42;;;;;;;;;;5092796;28;20757;-50
2023/07/07 04:27:40;;;;;;;5.57;2.70;;;;;;;;;;5086702;28;20230;-54
2023/07/07 04:30:08;;;;;;;3.25;2.33;;;;;;;;;;5090088;28;20219;-57
2023/07/07 04:32:36;;;;;;;4.00;2.67;;;;;;;;;;5091845;28;20223;-52
2023/07/07 04:35:04;;;;;;;3.25;2.00;;;;;;;;;;5090868;28;20688;-51
2023/07/07 04:37:32;;;;;;;3.08;2.10;;;;;;;;;;5091204;28;20335;-50
2023/07/07 04:39:59;;;;;;;3.75;2.33;;;;;;;;;;5093172;28;20321;-51
2023/07/07 04:42:26;;;;;;;3.42;1.95;;;;;;;;;;5092916;28;20215;-49
2023/07/07 04:44:53;;;;;;;5.20;2.45;;;;;;;;;;5084833;28;20223;-50
2023/07/07 04:47:20;;;;;;;8.35;1.90;;;;;;;;;;5072361;28;20726;-54
2023/07/07 04:49:48;;;;;;;2.80;1.90;;;;;;;;;;5071527;28;20258;-49
2023/07/07 04:52:15;;;;;;;3.22;2.17;;;;;;;;;;5072511;28;20223;-49
2023/07/07 04:54:42;;;;;;;2.95;2.03;;;;;;;;;;5072345;28;20219;-49
2023/07/07 04:57:09;;;;;;;5.07;1.92;;;;;;;;;;5072495;28;20235;-48
2023/07/07 04:59:36;;;;;;;6.05;2.28;;;;;;;;;;5071894;28;20317;-48
2023/07/07 05:02:04;;;;;;;4.68;1.85;;;;;;;;;;5072732;28;20231;-49
2023/07/07 05:04:31;;;;;;;2.53;1.67;;;;;;;;;;5072117;28;20313;-50
2023/07/07 05:06:58;;;;;;;5.63;1.83;;;;;;;;;;5070821;28;20231;-50
2023/07/07 05:09:25;;;;;;;3.28;1.88;;;;;;;;;;5071603;28;20229;-49
2023/07/07 05:11:52;;;;;;;4.57;1.73;;;;;;;;;;5087123;28;20223;-50
2023/07/07 05:14:19;;;;;;;2.40;1.38;;;;;;;;;;5070994;28;20648;-50
2023/07/07 05:16:47;;;;;;;2.90;1.80;;;;;;;;;;5072317;28;20635;-48
2023/07/07 05:19:14;;;;;;;2.45;1.42;;;;;;;;;;5072530;28;20223;-48
2023/07/07 05:21:41;;;;;;;2.97;1.70;;;;;;;;;;5071983;28;20231;-52
2023/07/07 05:24:08;;;;;;;3.30;1.40;;;;;;;;;;5087827;28;20239;-48
2023/07/07 05:26:35;;;;;;;4.05;1.65;;;;;;;;;;5092244;28;20235;-47
2023/07/07 05:29:04;;;;;;;2.58;1.70;;;;;;;;;;5094467;28;20218;-48
2023/07/07 05:31:31;;;;;;;6.70;1.83;;;;;;;;;;5095357;28;20218;-47
2023/07/07 05:33:59;;;;;;;1.48;1.35;;;;;;;;;;5096165;28;20234;-48
2023/07/07 05:36:27;;;;;;;4.00;1.67;;;;;;;;;;5094121;28;20621;-47
2023/07/07 05:38:54;;;;;;;2.55;1.42;;;;;;;;;;5096485;28;20218;-47
2023/07/07 05:41:21;;;;;;;2.25;1.63;;;;;;;;;;5095035;28;20237;-50
2023/07/07 05:43:49;;;;;;;1.92;1.30;;;;;;;;;;5093934;28;20215;-47
2023/07/07 05:46:18;;;;;;;4.03;1.15;;;;;;;;;;5095490;28;20555;-48
2023/07/07 05:48:46;;;;;;;5.68;1.63;;;;;;;;;;5095237;28;20687;-50
2023/07/07 05:51:16;;;;;;;3.40;1.58;;;;;;;;;;5095258;28;20219;-49
2023/07/07 05:53:43;;;;;;;4.20;1.73;;;;;;;;;;5095874;28;20233;-49
2023/07/07 05:56:23;;;;;;;3.10;1.55;;;;;;;;;;5095817;28;20594;-51
2023/07/07 05:58:52;;;;;;;3.78;1.80;;;;;;;;;;5095174;28;20276;-53
2023/07/07 06:01:20;;;;;;;3.65;1.65;;;;;;;;;;5095420;28;20268;-49
2023/07/07 06:03:47;;;;;;;1.85;1.15;;;;;;;;;;5095812;28;20229;-52
2023/07/07 06:06:14;;;;;;;2.35;1.40;;;;;;;;;;5095243;28;20227;-51
2023/07/07 06:08:42;;;;;;;2.90;1.50;;;;;;;;;;5095393;28;20222;-50
2023/07/07 06:11:09;;;;;;;3.33;1.10;;;;;;;;;;5095534;28;20280;-50
2023/07/07 06:13:37;;;;;;;2.25;1.10;;;;;;;;;;5094886;28;20222;-51
2023/07/07 06:16:05;;;;;;;2.42;1.63;;;;;;;;;;5095379;28;20263;-48
2023/07/07 06:18:33;;;;;;;2.33;1.50;;;;;;;;;;5095851;28;20219;-47
2023/07/07 06:21:00;;;;;;;2.40;1.10;;;;;;;;;;5094784;28;20583;-47
2023/07/07 06:23:30;;;;;;;2.88;1.60;;;;;;;;;;5094902;28;20237;-47
2023/07/07 06:25:57;;;;;;;1.80;1.25;;;;;;;;;;5093932;28;20313;-48
2023/07/07 06:28:24;;;;;;;3.53;1.60;;;;;;;;;;5094464;28;20226;-47
2023/07/07 06:30:52;;;;;;;2.30;1.55;;;;;;;;;;5095177;28;20293;-50
2023/07/07 06:33:20;;;;;;;2.00;1.48;;;;;;;;;;5094898;28;20246;-46
2023/07/07 06:35:48;;;;;;;2.55;1.13;;;;;;;;;;5094759;28;20230;-46
2023/07/07 06:38:15;;;;;;;2.50;1.20;;;;;;;;;;5095172;28;20226;-47
2023/07/07 06:40:43;;;;;;;3.30;1.20;;;;;;;;;;5093909;28;20225;-47
2023/07/07 06:43:10;;;;;;;2.80;1.48;;;;;;;;;;5094273;28;20230;-47
2023/07/07 06:45:37;;;;;;;5.20;1.50;;;;;;;;;;5093825;28;20226;-49
2023/07/07 06:48:05;;;;;;;1.35;1.00;;;;;;;;;;5094701;28;20694;-47
2023/07/07 06:50:38;;;;;;;2.92;1.60;;;;;;;;;;5094032;28;20583;-49
2023/07/07 06:53:05;;;;;;;1.25;0.98;;;;;;;;;;5094618;28;20276;-49
2023/07/07 06:55:32;;;;;;;2.35;1.20;;;;;;;;;;5094515;28;20279;-48
2023/07/07 06:57:59;;;;;;;1.75;1.23;;;;;;;;;;5094191;28;20234;-47
2023/07/07 07:00:28;;;;;;;2.35;1.15;;;;;;;;;;5094473;28;20227;-48
2023/07/07 07:02:55;;;;;;;1.77;1.13;;;;;;;;;;5094501;28;20359;-47
2023/07/07 07:05:23;;;;;;;1.40;1.10;;;;;;;;;;5093865;28;20273;-48
2023/07/07 07:07:50;;;;;;;1.05;0.80;;;;;;;;;;5094309;28;20592;-47
2023/07/07 07:10:17;;;;;;;1.73;1.08;;;;;;;;;;5094296;28;20226;-48
2023/07/07 07:12:44;;;;;;;2.60;1.10;;;;;;;;;;5093995;28;20223;-46
2023/07/07 07:15:11;;;;;;;2.15;1.00;;;;;;;;;;5094062;27;20222;-47
2023/07/07 07:17:39;;;;;;;1.33;0.90;;;;;;;;;;5090591;28;20236;-49
2023/07/07 07:20:08;;;;;;;1.30;1.02;;;;;;;;;;5089259;28;20215;-48
2023/07/07 07:22:35;;;;;;;1.73;1.05;;;;;;;;;;5092959;28;20344;-52
2023/07/07 07:25:03;;;;;;;1.55;0.85;;;;;;;;;;5093938;28;20238;-50
2023/07/07 07:27:30;;;;;;;5.82;1.20;;;;;;;;;;5092613;28;20271;-50
2023/07/07 07:29:57;;;;;;;1.00;0.70;;;;;;;;;;5093497;27;20683;-50
2023/07/07 07:32:24;;;;;;;3.90;0.90;;;;;;;;;;5093810;28;20222;-50
2023/07/07 07:34:52;;;;;;;1.42;1.00;;;;;;;;;;5093649;28;20244;-48
2023/07/07 07:37:19;;;;;;;1.10;0.85;;;;;;;;;;5093734;28;20238;-50
2023/07/07 07:39:46;;;;;;;1.92;1.00;;;;;;;;;;5093651;28;20229;-48
2023/07/07 07:42:13;;;;;;;4.10;1.08;;;;;;;;;;5093369;28;20222;-50
2023/07/07 07:44:43;;;;;;;3.17;1.20;;;;;;;;;;5092727;28;20687;-49
2023/07/07 07:47:10;;;;;;;1.20;1.05;;;;;;;;;;5092162;28;20222;-50
2023/07/07 07:49:38;;;;;;;1.92;1.00;;;;;;;;;;5092877;28;20227;-52
2023/07/07 07:52:05;;;;;;;5.38;0.95;;;;;;;;;;5091547;28;20246;-48
2023/07/07 07:54:34;;;;;;;1.35;0.95;;;;;;;;;;5093248;28;20241;-49
2023/07/07 07:57:01;;;;;;;2.03;1.00;;;;;;;;;;5102453;28;20233;-49
2023/07/07 07:59:29;;;;;;;0.73;0.60;;;;;;;;;;5113123;27;20592;-49
2023/07/07 08:01:56;;;;;;;0.90;0.70;;;;;;;;;;5096816;28;20725;-50
2023/07/07 08:04:23;;;;;;;1.15;0.73;;;;;;;;;;5094122;28;20213;-49
2023/07/07 08:06:52;;;;;;;2.05;1.00;;;;;;;;;;5092978;28;20213;-49
2023/07/07 08:09:20;;;;;;;3.53;1.00;;;;;;;;;;5088893;28;20686;-49
2023/07/07 08:11:47;;;;;;;2.05;0.80;;;;;;;;;;5088851;28;20253;-50
2023/07/07 08:14:18;;;;;;;1.35;1.00;;;;;;;;;;5092584;28;20219;-53
2023/07/07 08:16:46;;;;;;;1.38;1.00;;;;;;;;;;5092304;27;20315;-48
2023/07/07 08:19:13;;;;;;;1.17;0.90;;;;;;;;;;5072600;28;20223;-51
2023/07/07 08:21:45;;;;;;;0.98;0.85;;;;;;;;;;5089522;28;20222;-51
2023/07/07 08:24:14;;;;;;;1.70;1.08;;;;;;;;;;5088414;28;21096;-57
2023/07/07 08:26:41;;;;;;;2.10;1.00;;;;;;;;;;5091504;28;20226;-49
2023/07/07 08:29:10;;;;;;;1.25;0.98;;;;;;;;;;5092847;28;20219;-49
2023/07/07 08:31:51;;;;;;;2.08;1.10;;;;;;;;;;5092919;28;20639;-49
2023/07/07 08:34:19;;;;;;;1.65;1.20;;;;;;;;;;5090686;28;20590;-51
2023/07/07 08:36:47;;;;;;;1.38;0.90;;;;;;;;;;5093201;28;20654;-48
2023/07/07 08:39:17;;;;;;;2.45;1.20;;;;;;;;;;5093504;28;20223;-48
2023/07/07 08:41:58;;;;;;;1.50;1.08;;;;;;;;;;5091910;28;20199;-48
2023/07/07 08:44:26;;;;;;;3.70;1.23;;;;;;;;;;5093407;28;20260;-47
2023/07/07 08:47:17;;;;;;;2.83;1.00;;;;;;;;;;5093031;28;20685;-47
2023/07/07 08:50:02;;;;;;;3.28;1.20;;;;;;;;;;5092486;28;20191;-49
2023/07/07 08:52:53;;;;;;;2.75;1.13;;;;;;;;;;5091889;28;20583;-51
2023/07/07 08:55:35;;;;;;;1.95;1.23;;;;;;;;;;5091744;28;20638;-46
2023/07/07 08:58:11;;;;;;;2.10;1.35;;;;;;;;;;5092347;28;20574;-48
2023/07/07 09:01:18;;;;;;;1.73;1.13;;;;;;;;;;5091699;28;20206;-47
2023/07/07 09:03:51;;;;;;;1.80;1.10;;;;;;;;;;5094494;28;20199;-48
2023/07/07 09:06:28;;;;;;;3.17;1.25;;;;;;;;;;5087099;28;20239;-49
2023/07/07 09:09:01;;;;;;;5.43;1.05;;;;;;;;;;5097152;28;20182;-50
2023/07/07 09:11:37;;;;;;;2.90;1.33;;;;;;;;;;5097262;28;20186;-50
2023/07/07 09:14:04;;;;;;;1.50;1.05;;;;;;;;;;5091375;28;20187;-47
2023/07/07 09:16:34;;;;;;;2.60;1.23;;;;;;;;;;5097179;28;20217;-48
2023/07/07 09:19:04;;;;;;;2.38;1.25;;;;;;;;;;5093018;28;20195;-51
2023/07/07 09:21:43;;;;;;;4.32;1.10;;;;;;;;;;5094354;28;20194;-48
2023/07/07 09:24:22;;;;;;;3.58;1.50;;;;;;;;;;5096412;28;20215;-47
2023/07/07 09:26:53;;;;;;;5.53;1.20;;;;;;;;;;5097151;28;20207;-50
2023/07/07 09:29:26;;;;;;;2.13;1.17;;;;;;;;;;5095435;28;20198;-48
2023/07/07 09:31:54;;;;;;;2.10;1.20;;;;;;;;;;5096279;28;20195;-48
2023/07/07 09:34:22;;;;;;;4.82;1.38;;;;;;;;;;5096745;28;20205;-49
2023/07/07 09:37:01;;;;;;;1.88;1.20;;;;;;;;;;5095755;28;20238;-49
2023/07/07 09:39:48;;;;;;;1.52;1.20;;;;;;;;;;5095719;28;20273;-49
2023/07/07 09:42:22;;;;;;;2.28;0.98;;;;;;;;;;5095907;28;20248;-47
2023/07/07 09:45:14;;;;;;;2.65;1.20;;;;;;;;;;5096902;28;20635;-49
2023/07/07 09:47:57;;;;;;;1.25;1.00;;;;;;;;;;5097322;28;20218;-48
2023/07/07 09:51:01;;;;;;;1.73;1.25;;;;;;;;;;5095365;28;20210;-48
2023/07/07 09:53:34;;;;;;;3.53;1.15;;;;;;;;;;5095551;28;20207;-50
2023/07/07 09:56:18;;;;;;;2.00;1.00;;;;;;;;;;5095766;28;20203;-47
2023/07/07 09:59:11;;;;;;;1.92;1.00;;;;;;;;;;5096671;28;20644;-50
2023/07/07 10:01:42;;;;;;;2.60;1.10;;;;;;;;;;5096853;28;20277;-48
2023/07/07 10:04:13;;;;;;;2.58;1.13;;;;;;;;;;5095582;28;20207;-53
2023/07/07 10:06:53;;;;;;;5.78;1.10;;;;;;;;;;5096544;28;20218;-47
2023/07/07 10:09:20;;;;;;;1.70;1.10;;;;;;;;;;5095534;28;20210;-47
2023/07/07 10:11:49;;;;;;;2.17;1.35;;;;;;;;;;5096418;28;20202;-49
2023/07/07 10:14:19;;;;;;;1.70;1.00;;;;;;;;;;5094495;28;20654;-47
2023/07/07 10:16:59;;;;;;;2.50;1.00;;;;;;;;;;5096251;28;20281;-48
2023/07/07 10:19:27;;;;;;;2.42;1.00;;;;;;;;;;5096288;28;20213;-47
2023/07/07 10:21:54;;;;;;;1.77;1.30;;;;;;;;;;5096240;28;20203;-49
2023/07/07 10:24:21;;;;;;;1.40;1.02;;;;;;;;;;5094844;28;20209;-47
2023/07/07 10:26:49;;;;;;;2.63;1.20;;;;;;;;;;5096287;28;20771;-48
2023/07/07 10:29:21;;;;;;;2.10;1.05;;;;;;;;;;5096150;28;20274;-49
2023/07/07 10:31:50;;;;;;;2.25;1.35;;;;;;;;;;5092401;28;20690;-52
2023/07/07 10:34:37;;;;;;;2.75;0.90;;;;;;;;;;5089454;28;20551;-48
2023/07/07 10:37:21;;;;;;;1.17;0.93;;;;;;;;;;5092902;28;20216;-48
2023/07/07 10:39:53;;;;;;;1.27;1.00;;;;;;;;;;5081365;28;20262;-49
2023/07/07 10:42:23;;;;;;;1.20;0.80;;;;;;;;;;5084290;28;20292;-47
2023/07/07 10:44:53;;;;;;;4.85;1.00;;;;;;;;;;5081784;27;20223;-47
2023/07/07 10:47:38;;;;;;;5.97;1.20;;;;;;;;;;5080826;28;20663;-49
2023/07/07 10:50:12;;;;;;;4.32;1.05;;;;;;;;;;5094999;27;20222;-48
2023/07/07 10:53:17;;;;;;;2.05;1.17;;;;;;;;;;5093798;28;20304;-47
2023/07/07 10:56:12;;;;;;;1.55;0.90;;;;;;;;;;5095028;28;20272;-46
2023/07/07 10:58:59;;;;;;;1.10;0.80;;;;;;;;;;5093263;28;20245;-48
2023/07/07 11:01:50;;;;;;;5.00;0.90;;;;;;;;;;5092721;28;20631;-46
2023/07/07 11:04:44;;;;;;;2.25;1.17;;;;;;;;;;5094706;28;20231;-47
2023/07/07 11:07:21;;;;;;;2.33;1.00;;;;;;;;;;5094486;28;20917;-51
2023/07/07 11:10:16;;;;;;;1.60;1.10;;;;;;;;;;5094462;28;20314;-48
2023/07/07 11:13:38;;;;;;;1.30;0.98;;;;;;;;;;5093487;28;20226;-53
2023/07/07 11:16:23;;;;;;;1.77;1.13;;;;;;;;;;5093843;28;20222;-52
2023/07/07 11:19:26;;;;;;;3.45;1.38;;;;;;;;;;5093136;28;20245;-48
2023/07/07 11:21:53;;;;;;;1.95;1.15;;;;;;;;;;5093205;28;20222;-48
2023/07/07 11:24:28;;;;;;;1.73;1.13;;;;;;;;;;5094045;28;20226;-48
2023/07/07 11:27:37;;;;;;;3.00;1.27;;;;;;;;;;5092271;28;20222;-47
2023/07/07 11:30:32;;;;;;;1.80;1.20;;;;;;;;;;5093540;28;20229;-48
2023/07/07 11:33:34;;;;;;;1.35;1.17;;;;;;;;;;5093107;28;20239;-52
2023/07/07 11:36:27;;;;;;;2.75;1.15;;;;;;;;;;5093880;28;20702;-53
2023/07/07 11:39:13;;;;;;;1.45;0.93;;;;;;;;;;5092975;28;20238;-50
2023/07/07 11:41:52;;;;;;;1.58;1.08;;;;;;;;;;5092548;28;20225;-52
2023/07/07 11:44:35;;;;;;;2.25;1.10;;;;;;;;;;5073432;28;20227;-53
2023/07/07 11:47:37;;;;;;;1.58;0.93;;;;;;;;;;5079332;28;20210;-51
2023/07/07 11:50:16;;;;;;;1.52;1.02;;;;;;;;;;5072696;28;20198;-51
2023/07/07 11:53:06;;;;;;;1.45;0.90;;;;;;;;;;5071715;28;20188;-51
2023/07/07 11:55:55;;;;;;;1.60;1.10;;;;;;;;;;5074218;28;20555;-51
2023/07/07 11:58:34;;;;;;;2.58;1.10;;;;;;;;;;5081456;28;20219;-49
2023/07/07 12:01:46;;;;;;;1.35;1.00;;;;;;;;;;5083945;28;20305;-51
2023/07/07 12:04:25;;;;;;;1.35;1.10;;;;;;;;;;5034542;28;20227;-50
2023/07/07 12:06:55;;;;;;;1.15;0.98;;;;;;;;;;5037785;28;20220;-49
2023/07/07 12:09:37;;;;;;;3.10;1.40;;;;;;;;;;5050093;28;20220;-50
2023/07/07 12:12:39;;;;;;;2.33;1.25;;;;;;;;;;5050084;28;20595;-48
2023/07/07 12:15:16;;;;;;;0.95;0.85;;;;;;;;;;5050236;28;20226;-50
2023/07/07 12:17:52;;;;;;;1.30;1.10;;;;;;;;;;5050191;28;20322;-50
2023/07/07 12:20:37;;;;;;;2.47;1.00;;;;;;;;;;5048418;28;20698;-49
2023/07/07 12:23:05;;;;;;;1.10;1.00;;;;;;;;;;5049857;28;20688;-47
2023/07/07 12:25:33;;;;;;;1.77;1.27;;;;;;;;;;5049729;28;20231;-52
2023/07/07 12:28:00;;;;;;;2.83;1.30;;;;;;;;;;5049990;28;20240;-50
2023/07/07 12:30:32;;;;;;;1.42;1.10;;;;;;;;;;5060498;28;20251;-49
2023/07/07 12:32:59;;;;;;;2.10;1.10;;;;;;;;;;5050285;28;20215;-52
2023/07/07 12:35:36;;;;;;;2.70;1.40;;;;;;;;;;5050372;28;20228;-48
2023/07/07 12:38:21;;;;;;;2.83;1.10;;;;;;;;;;5049909;28;20228;-48
2023/07/07 12:40:49;;;;;;;4.38;1.30;;;;;;;;;;5108709;27;20707;-48
2023/07/07 12:43:21;;;;;;;2.28;1.10;;;;;;;;;;5088530;28;20218;-49
2023/07/07 12:45:50;;;;;;;2.08;1.30;;;;;;;;;;5092182;28;20223;-48
2023/07/07 12:48:20;;;;;;;1.63;1.00;;;;;;;;;;5089856;28;20222;-47
2023/07/07 12:50:48;;;;;;;2.00;1.25;;;;;;;;;;5091455;28;20281;-48
2023/07/07 12:53:42;;;;;;;2.65;1.10;;;;;;;;;;5087970;28;20235;-48
2023/07/07 12:56:09;;;;;;;2.45;1.17;;;;;;;;;;5067086;28;20731;-48
2023/07/07 12:58:37;;;;;;;3.28;1.00;;;;;;;;;;5072750;28;20292;-49
2023/07/07 13:01:14;;;;;;;1.20;0.88;;;;;;;;;;5091972;28;20301;-49
2023/07/07 13:04:05;;;;;;;4.07;1.10;;;;;;;;;;5088701;28;20222;-47
2023/07/07 13:06:51;;;;;;;3.10;1.30;;;;;;;;;;5091294;28;20706;-47
2023/07/07 13:09:24;;;;;;;1.45;0.98;;;;;;;;;;5089515;28;20574;-50
2023/07/07 13:11:56;;;;;;;1.77;1.10;;;;;;;;;;5092287;28;20222;-48
2023/07/07 13:14:41;;;;;;;3.42;1.58;;;;;;;;;;5092749;28;20226;-48
2023/07/07 13:17:12;;;;;;;4.38;1.30;;;;;;;;;;5092136;28;20240;-48
2023/07/07 13:20:04;;;;;;;1.58;1.10;;;;;;;;;;5092957;28;20246;-47
2023/07/07 13:22:35;;;;;;;1.45;1.08;;;;;;;;;;5092758;28;20223;-47
2023/07/07 13:25:08;;;;;;;1.13;0.70;;;;;;;;;;5090997;28;20246;-46
2023/07/07 13:27:35;;;;;;;2.97;1.35;;;;;;;;;;5092310;28;20284;-49
2023/07/07 13:30:24;;;;;;;2.78;1.20;;;;;;;;;;5091634;28;20214;-49
2023/07/07 13:32:54;;;;;;;2.08;1.25;;;;;;;;;;5090921;28;20235;-48
2023/07/07 13:35:24;;;;;;;1.90;1.10;;;;;;;;;;5092727;28;20229;-47
2023/07/07 13:37:57;;;;;;;1.92;1.10;;;;;;;;;;5091011;28;20691;-46
2023/07/07 13:40:24;;;;;;;2.20;1.25;;;;;;;;;;5091472;28;20223;-47
2023/07/07 13:42:51;;;;;;;2.72;0.88;;;;;;;;;;5091301;28;20218;-46
2023/07/07 13:45:20;;;;;;;1.33;1.13;;;;;;;;;;5091705;28;20676;-47
2023/07/07 13:47:50;;;;;;;1.77;1.20;;;;;;;;;;5091058;28;20313;-47
2023/07/07 13:50:25;;;;;;;4.40;1.10;;;;;;;;;;5094068;28;20806;-46
2023/07/07 13:52:57;;;;;;;2.05;1.10;;;;;;;;;;5096153;28;20241;-46
2023/07/07 13:55:34;;;;;;;1.83;1.33;;;;;;;;;;5095934;28;20218;-47
2023/07/07 13:58:03;;;;;;;3.10;1.20;;;;;;;;;;5094935;28;20322;-47
2023/07/07 14:00:36;;;;;;;1.50;0.95;;;;;;;;;;5095348;28;20226;-47
2023/07/07 14:03:05;;;;;;;1.98;1.20;;;;;;;;;;5095746;28;20217;-47
2023/07/07 14:05:35;;;;;;;5.38;1.17;;;;;;;;;;5095956;28;20305;-48
2023/07/07 14:08:20;;;;;;;1.50;1.02;;;;;;;;;;5094904;28;20305;-49
2023/07/07 14:10:56;;;;;;;1.08;0.93;;;;;;;;;;5094035;28;20229;-51
2023/07/07 14:13:31;;;;;;;1.35;0.85;;;;;;;;;;5095414;28;20570;-45
2023/07/07 14:16:08;;;;;;;1.73;1.10;;;;;;;;;;5093947;28;20631;-47
2023/07/07 14:18:48;;;;;;;9.10;1.75;;;;;;;;;;5095748;28;20313;-59
2023/07/07 14:21:19;;;;;;;1.17;1.02;;;;;;;;;;5094554;28;20601;-60
2023/07/07 14:23:47;;;;;;;6.13;1.10;;;;;;;;;;5095199;28;20699;-55
2023/07/07 14:26:17;;;;;;;2.08;1.15;;;;;;;;;;5093879;28;20694;-59
2023/07/07 14:28:44;;;;;;;1.90;1.30;;;;;;;;;;5094216;28;20234;-59
2023/07/07 14:31:12;;;;;;;4.72;1.20;;;;;;;;;;5093987;28;20218;-58
2023/07/07 14:33:54;;;;;;;1.77;1.00;;;;;;;;;;5093960;28;20218;-59
2023/07/07 14:36:25;;;;;;;2.58;1.23;;;;;;;;;;5084611;28;20446;-59
2023/07/07 14:38:57;;;;;;;2.13;1.10;;;;;;;;;;5093554;28;20237;-60
2023/07/07 14:41:28;;;;;;;5.07;1.10;;;;;;;;;;5094813;28;20222;-60
2023/07/07 14:43:55;;;;;;;5.07;1.13;;;;;;;;;;5093484;28;20695;-58
2023/07/07 14:46:33;;;;;;;1.83;1.15;;;;;;;;;;5080300;28;20223;-60
2023/07/07 14:49:17;;;;;;;2.97;1.20;;;;;;;;;;5093189;28;20230;-58
2023/07/07 14:51:50;;;;;;;1.55;1.13;;;;;;;;;;5092677;28;20714;-60
2023/07/07 14:54:23;;;;;;;3.33;1.52;;;;;;;;;;5090499;28;20717;-60
2023/07/07 14:57:00;;;;;;;1.77;1.08;;;;;;;;;;5093710;28;20230;-60
2023/07/07 14:59:35;;;;;;;3.33;1.33;;;;;;;;;;5093734;28;20577;-60
2023/07/07 15:02:14;;;;;;;2.55;1.23;;;;;;;;;;5073550;28;20230;-59
2023/07/07 15:04:42;;;;;;;1.60;1.27;;;;;;;;;;5074974;28;20227;-59
2023/07/07 15:07:20;;;;;;;1.90;1.30;;;;;;;;;;5074490;28;20223;-58
2023/07/07 15:09:47;;;;;;;2.00;1.10;;;;;;;;;;5073245;28;20243;-59
2023/07/07 15:12:15;;;;;;;1.60;1.30;;;;;;;;;;5074911;28;20245;-59
2023/07/07 15:14:42;;;;;;;2.85;1.05;;;;;;;;;;5089498;28;20306;-59
2023/07/07 15:17:10;;;;;;;8.07;1.30;;;;;;;;;;5078551;28;20577;-58